createdAt,value
2023-03-26T00:01:30.691Z,19.80
2023-03-26T00:03:58.893Z,19.79
2023-03-26T00:06:29.046Z,19.78
2023-03-26T00:08:58.420Z,19.76
2023-03-26T00:11:27.737Z,19.75
2023-03-26T00:13:58.746Z,19.74
2023-03-26T00:16:28.921Z,19.74
2023-03-26T00:18:56.392Z,19.77
2023-03-26T00:21:29.307Z,19.79
2023-03-26T00:24:05.478Z,19.79
2023-03-26T00:26:37.799Z,19.80
2023-03-26T00:29:10.609Z,19.80
2023-03-26T00:31:41.364Z,19.80
2023-03-26T00:34:10.773Z,19.80
2023-03-26T00:36:38.000Z,19.78
2023-03-26T00:39:05.933Z,19.77
2023-03-26T00:41:37.291Z,19.76
2023-03-26T00:44:04.504Z,19.74
2023-03-26T00:46:35.813Z,19.73
2023-03-26T00:49:04.317Z,19.71
2023-03-26T00:51:32.192Z,19.69
2023-03-26T00:53:59.551Z,19.67
2023-03-26T00:56:26.898Z,19.65
2023-03-26T00:58:54.258Z,19.64
2023-03-26T01:01:30.736Z,19.66
2023-03-26T01:04:07.541Z,19.66
2023-03-26T01:06:42.495Z,19.66
2023-03-26T01:09:19.865Z,19.66
2023-03-26T01:11:48.729Z,19.67
2023-03-26T01:14:24.148Z,19.68
2023-03-26T01:17:05.074Z,19.68
2023-03-26T01:19:34.173Z,19.68
2023-03-26T01:22:01.992Z,19.68
2023-03-26T01:24:29.230Z,19.68
2023-03-26T01:26:59.148Z,19.67
2023-03-26T01:29:34.001Z,19.66
2023-03-26T01:32:23.135Z,19.64
2023-03-26T01:35:03.198Z,19.62
2023-03-26T01:37:47.035Z,19.61
2023-03-26T01:40:20.340Z,19.60
2023-03-26T01:43:10.698Z,19.60
2023-03-26T01:45:41.463Z,19.62
2023-03-26T01:48:09.219Z,19.62
2023-03-26T01:50:36.884Z,19.62
2023-03-26T01:53:04.749Z,19.62
2023-03-26T01:55:54.430Z,19.62
2023-03-26T01:58:22.004Z,19.63
2023-03-26T02:01:02.668Z,19.62
2023-03-26T02:03:32.299Z,19.61
2023-03-26T02:06:20.084Z,19.61
2023-03-26T02:08:54.182Z,19.62
2023-03-26T02:11:23.037Z,19.63
2023-03-26T02:13:52.423Z,19.64
2023-03-26T02:16:21.705Z,19.66
2023-03-26T02:18:55.850Z,19.67
2023-03-26T02:21:28.107Z,19.69
2023-03-26T02:24:03.957Z,19.73
2023-03-26T02:26:37.821Z,19.76
2023-03-26T02:29:10.159Z,19.78
2023-03-26T02:31:38.037Z,19.80
2023-03-26T02:34:05.341Z,19.82
2023-03-26T02:36:36.148Z,19.84
2023-03-26T02:39:04.595Z,19.85
2023-03-26T02:41:35.135Z,19.86
2023-03-26T02:44:05.999Z,19.86
2023-03-26T02:46:53.659Z,19.86
2023-03-26T02:49:55.538Z,19.86
2023-03-26T02:52:26.805Z,19.87
2023-03-26T02:54:55.652Z,19.87
2023-03-26T02:57:25.490Z,19.85
2023-03-26T03:00:14.489Z,19.85
2023-03-26T03:02:50.788Z,19.85
2023-03-26T03:05:31.962Z,19.84
2023-03-26T03:08:24.952Z,19.84
2023-03-26T03:11:22.292Z,19.86
2023-03-26T03:13:52.248Z,19.88
2023-03-26T03:16:24.441Z,19.89
2023-03-26T03:18:58.110Z,19.90
2023-03-26T03:21:30.395Z,19.91
2023-03-26T03:23:59.956Z,19.91
2023-03-26T03:26:29.884Z,19.91
2023-03-26T03:29:02.515Z,19.91
2023-03-26T03:31:29.654Z,19.91
2023-03-26T03:34:01.439Z,19.90
2023-03-26T03:36:30.529Z,19.90
2023-03-26T03:39:03.458Z,19.89
2023-03-26T03:41:34.616Z,19.88
2023-03-26T03:44:03.660Z,19.87
2023-03-26T03:46:32.300Z,19.87
2023-03-26T03:48:59.760Z,19.86
2023-03-26T03:51:31.401Z,19.85
2023-03-26T03:54:13.348Z,19.84
2023-03-26T03:56:47.835Z,19.84
2023-03-26T03:59:34.158Z,19.83
2023-03-26T04:02:04.118Z,19.86
2023-03-26T04:04:34.507Z,19.87
2023-03-26T04:07:06.584Z,19.87
2023-03-26T04:09:54.088Z,19.88
2023-03-26T04:12:22.157Z,19.89
2023-03-26T04:15:01.314Z,19.89
2023-03-26T04:17:30.618Z,19.89
2023-03-26T04:19:58.367Z,19.89
2023-03-26T04:22:34.811Z,19.89
2023-03-26T04:25:05.785Z,19.88
2023-03-26T04:27:55.785Z,19.88
2023-03-26T04:30:45.043Z,19.86
2023-03-26T04:33:31.768Z,19.86
2023-03-26T04:36:03.200Z,19.85
2023-03-26T04:38:41.095Z,19.85
2023-03-26T04:41:13.680Z,19.83
2023-03-26T04:43:51.058Z,19.83
2023-03-26T04:46:28.920Z,19.81
2023-03-26T04:49:04.242Z,19.79
2023-03-26T04:51:39.260Z,19.81
2023-03-26T04:54:20.411Z,19.78
2023-03-26T04:57:10.036Z,19.76
2023-03-26T04:59:47.908Z,19.74
2023-03-26T05:02:15.960Z,19.74
2023-03-26T05:04:48.636Z,19.71
2023-03-26T05:07:22.615Z,19.69
2023-03-26T05:09:52.939Z,19.68
2023-03-26T05:12:24.013Z,19.67
2023-03-26T05:14:58.846Z,19.65
2023-03-26T05:17:42.105Z,19.63
2023-03-26T05:20:27.036Z,19.61
2023-03-26T05:22:54.235Z,19.60
2023-03-26T05:25:25.846Z,19.57
2023-03-26T05:27:53.092Z,19.56
2023-03-26T05:30:22.490Z,19.54
2023-03-26T05:32:53.765Z,19.56
2023-03-26T05:35:24.540Z,19.56
2023-03-26T05:37:51.731Z,19.55
2023-03-26T05:40:22.466Z,19.55
2023-03-26T05:43:10.224Z,19.55
2023-03-26T05:45:48.344Z,19.56
2023-03-26T05:48:23.342Z,19.56
2023-03-26T05:50:55.538Z,19.56
2023-03-26T05:53:25.564Z,19.56
2023-03-26T05:56:11.026Z,19.56
2023-03-26T05:58:57.415Z,19.58
2023-03-26T06:01:47.407Z,19.59
2023-03-26T06:04:18.074Z,19.60
2023-03-26T06:07:21.515Z,19.60
2023-03-26T06:10:02.914Z,19.60
2023-03-26T06:12:33.531Z,19.60
2023-03-26T06:15:00.513Z,19.61
2023-03-26T06:17:56.891Z,19.62
2023-03-26T06:20:37.792Z,19.62
2023-03-26T06:23:16.195Z,19.61
2023-03-26T06:26:01.491Z,19.61
2023-03-26T06:28:48.689Z,19.60
2023-03-26T06:31:44.318Z,19.59
2023-03-26T06:34:20.999Z,19.57
2023-03-26T06:36:49.030Z,19.56
2023-03-26T06:39:16.518Z,19.55
2023-03-26T06:41:54.526Z,19.53
2023-03-26T06:44:39.960Z,19.51
2023-03-26T06:47:25.600Z,19.49
2023-03-26T06:50:12.360Z,19.47
2023-03-26T06:52:54.898Z,19.47
2023-03-26T06:55:45.019Z,19.49
2023-03-26T06:58:35.494Z,19.49
2023-03-26T07:01:21.091Z,19.50
2023-03-26T07:04:06.975Z,19.51
2023-03-26T07:06:52.578Z,19.51
2023-03-26T07:09:38.536Z,19.51
2023-03-26T07:12:23.908Z,19.50
2023-03-26T07:15:14.822Z,19.49
2023-03-26T07:18:13.710Z,19.49
2023-03-26T07:20:46.183Z,19.49
2023-03-26T07:23:15.668Z,19.49
2023-03-26T07:26:27.288Z,19.49
2023-03-26T07:29:18.598Z,19.49
2023-03-26T07:32:09.780Z,19.50
2023-03-26T07:34:57.858Z,19.53
2023-03-26T07:37:43.542Z,19.53
2023-03-26T07:40:39.556Z,19.54
2023-03-26T07:43:41.633Z,19.54
2023-03-26T07:46:12.575Z,19.54
2023-03-26T07:48:52.067Z,19.55
2023-03-26T07:51:43.302Z,19.54
2023-03-26T07:54:23.886Z,19.55
2023-03-26T07:58:09.677Z,19.54
2023-03-26T08:01:16.613Z,19.53
2023-03-26T08:04:24.644Z,19.53
2023-03-26T08:08:03.190Z,19.53
2023-03-26T08:10:54.012Z,19.55
2023-03-26T08:13:51.666Z,19.56
2023-03-26T08:16:35.763Z,19.57
2023-03-26T08:19:29.409Z,19.58
2023-03-26T08:22:07.278Z,19.58
2023-03-26T08:24:47.813Z,19.60
2023-03-26T08:27:38.137Z,19.60
2023-03-26T08:30:22.977Z,19.59
2023-03-26T08:33:16.861Z,19.58
2023-03-26T08:35:48.413Z,19.57
2023-03-26T08:38:21.235Z,19.55
2023-03-26T08:40:57.628Z,19.54
2023-03-26T08:43:58.717Z,19.53
2023-03-26T08:46:25.709Z,19.56
2023-03-26T08:49:18.728Z,19.56
2023-03-26T08:52:00.832Z,19.56
2023-03-26T08:54:43.362Z,19.56
2023-03-26T08:57:36.286Z,19.55
2023-03-26T09:00:34.155Z,19.54
2023-03-26T09:03:16.311Z,19.53
2023-03-26T09:06:05.276Z,19.52
2023-03-26T09:09:04.942Z,19.52
2023-03-26T09:11:34.336Z,19.52
2023-03-26T09:14:23.291Z,19.52
2023-03-26T09:17:16.267Z,19.52
2023-03-26T09:19:54.474Z,19.53
2023-03-26T09:22:36.571Z,19.57
2023-03-26T09:25:34.944Z,19.58
2023-03-26T09:28:01.892Z,19.59
2023-03-26T09:30:47.166Z,19.59
2023-03-26T09:33:26.463Z,19.60
2023-03-26T09:36:00.948Z,19.59
2023-03-26T09:38:46.952Z,19.59
2023-03-26T09:41:21.782Z,19.57
2023-03-26T09:44:22.793Z,19.57
2023-03-26T09:46:52.358Z,19.58
2023-03-26T09:49:41.246Z,19.59
2023-03-26T09:52:42.695Z,19.61
2023-03-26T09:55:42.232Z,19.64
2023-03-26T09:58:29.524Z,19.72
2023-03-26T10:00:58.031Z,19.74
2023-03-26T10:03:32.014Z,19.76
2023-03-26T10:06:24.517Z,19.80
2023-03-26T10:09:03.555Z,19.83
2023-03-26T10:11:38.193Z,19.85
2023-03-26T10:14:19.152Z,19.86
2023-03-26T10:16:58.091Z,19.88
2023-03-26T10:19:43.600Z,19.89
2023-03-26T10:22:18.072Z,19.90
2023-03-26T10:25:08.362Z,19.90
2023-03-26T10:27:56.857Z,19.90
2023-03-26T10:30:34.869Z,19.94
2023-03-26T10:33:46.198Z,19.96
2023-03-26T10:36:27.089Z,19.98
2023-03-26T10:39:37.404Z,20.00
2023-03-26T10:42:21.033Z,20.00
2023-03-26T10:45:07.407Z,20.01
2023-03-26T10:47:54.192Z,20.01
2023-03-26T10:50:32.749Z,20.00
2023-03-26T10:53:02.412Z,20.00
2023-03-26T10:55:37.293Z,19.99
2023-03-26T10:58:25.710Z,19.98
2023-03-26T11:01:33.935Z,19.99
2023-03-26T11:04:27.491Z,20.02
2023-03-26T11:07:06.585Z,20.02
2023-03-26T11:10:08.195Z,20.03
2023-03-26T11:12:47.566Z,20.05
2023-03-26T11:15:21.438Z,20.06
2023-03-26T11:17:48.569Z,20.07
2023-03-26T11:20:32.370Z,20.07
2023-03-26T11:23:23.891Z,20.07
2023-03-26T11:26:05.549Z,20.07
2023-03-26T11:29:04.026Z,20.06
2023-03-26T11:32:04.664Z,20.04
2023-03-26T11:34:40.633Z,20.03
2023-03-26T11:37:17.763Z,20.02
2023-03-26T11:39:55.188Z,20.02
2023-03-26T11:42:24.548Z,20.06
2023-03-26T11:44:59.128Z,20.06
2023-03-26T11:47:40.734Z,20.06
2023-03-26T11:50:16.081Z,20.07
2023-03-26T11:52:44.099Z,20.08
2023-03-26T11:55:13.152Z,20.08
2023-03-26T11:57:45.645Z,20.08
2023-03-26T12:00:18.465Z,20.08
2023-03-26T12:02:47.910Z,20.07
2023-03-26T12:05:19.882Z,20.08
2023-03-26T12:07:57.441Z,20.07
2023-03-26T12:10:27.045Z,20.06
2023-03-26T12:12:58.344Z,20.05
2023-03-26T12:15:26.961Z,20.06
2023-03-26T12:17:57.140Z,20.07
2023-03-26T12:20:25.049Z,20.09
2023-03-26T12:23:00.335Z,20.09
2023-03-26T12:25:32.933Z,20.10
2023-03-26T12:28:13.835Z,20.11
2023-03-26T12:30:42.725Z,20.11
2023-03-26T12:33:38.942Z,20.12
2023-03-26T12:36:27.036Z,20.11
2023-03-26T12:39:16.986Z,20.10
2023-03-26T12:44:42.259Z,20.10
2023-03-26T12:44:52.875Z,20.10
2023-03-26T12:47:59.128Z,20.10
2023-03-26T12:50:33.976Z,20.09
2023-03-26T12:53:37.662Z,20.09
2023-03-26T12:56:20.053Z,20.08
2023-03-26T12:59:01.465Z,20.08
2023-03-26T13:01:40.397Z,20.06
2023-03-26T13:04:58.422Z,20.05
2023-03-26T13:08:07.756Z,20.04
2023-03-26T13:11:00.518Z,20.03
2023-03-26T13:13:48.756Z,20.02
2023-03-26T13:16:24.786Z,20.01
2023-03-26T13:18:59.641Z,20.00
2023-03-26T13:21:38.779Z,19.99
2023-03-26T13:24:05.706Z,19.99
2023-03-26T13:26:33.023Z,19.98
2023-03-26T13:29:26.963Z,19.98
2023-03-26T13:32:09.636Z,19.97
2023-03-26T13:34:55.527Z,19.97
2023-03-26T13:37:45.307Z,19.95
2023-03-26T13:40:25.613Z,19.94
2023-03-26T13:43:31.413Z,19.94
2023-03-26T13:46:10.269Z,19.92
2023-03-26T13:49:04.030Z,19.92
2023-03-26T13:51:37.156Z,19.93
2023-03-26T13:54:28.635Z,19.96
2023-03-26T13:57:02.880Z,19.98
2023-03-26T13:59:58.999Z,19.99
2023-03-26T14:02:40.308Z,20.00
2023-03-26T14:05:21.682Z,20.01
2023-03-26T14:08:17.964Z,20.00
2023-03-26T14:10:54.252Z,19.99
2023-03-26T14:13:24.413Z,19.97
2023-03-26T14:16:15.155Z,19.97
2023-03-26T14:18:51.244Z,19.95
2023-03-26T14:21:37.478Z,19.94
2023-03-26T14:24:25.793Z,19.93
2023-03-26T14:27:09.947Z,19.90
2023-03-26T14:30:19.000Z,19.88
2023-03-26T14:32:49.638Z,19.87
2023-03-26T14:35:38.613Z,19.87
2023-03-26T14:38:34.224Z,19.87
2023-03-26T14:41:19.774Z,19.90
2023-03-26T14:44:00.341Z,19.89
2023-03-26T14:47:02.052Z,19.89
2023-03-26T14:49:54.573Z,19.90
2023-03-26T14:52:28.094Z,19.90
2023-03-26T14:54:58.193Z,19.89
2023-03-26T14:57:32.076Z,19.88
2023-03-26T15:00:02.434Z,19.87
2023-03-26T15:02:53.976Z,19.87
2023-03-26T15:05:37.093Z,19.87
2023-03-26T15:08:11.189Z,19.86
2023-03-26T15:10:47.440Z,19.85
2023-03-26T15:13:48.596Z,19.84
2023-03-26T15:16:50.939Z,19.81
2023-03-26T15:19:56.109Z,19.80
2023-03-26T15:22:49.484Z,19.78
2023-03-26T15:25:37.472Z,19.77
2023-03-26T15:28:30.072Z,19.80
2023-03-26T15:31:17.714Z,19.80
2023-03-26T15:34:23.854Z,19.80
2023-03-26T15:37:30.042Z,19.80
2023-03-26T15:40:19.190Z,19.81
2023-03-26T15:42:58.134Z,19.82
2023-03-26T15:45:42.264Z,19.82
2023-03-26T15:48:12.862Z,19.82
2023-03-26T15:54:06.676Z,19.82
2023-03-26T15:56:53.255Z,19.83
2023-03-26T15:59:26.827Z,19.82
2023-03-26T16:02:16.347Z,19.81
2023-03-26T16:04:57.663Z,19.84
2023-03-26T16:07:44.008Z,19.84
2023-03-26T16:10:28.975Z,19.84
2023-03-26T16:13:24.182Z,19.85
2023-03-26T16:16:11.654Z,19.85
2023-03-26T16:18:42.502Z,19.85
2023-03-26T16:21:32.082Z,19.86
2023-03-26T16:24:02.548Z,19.87
2023-03-26T16:26:44.763Z,19.88
2023-03-26T16:29:14.750Z,19.92
2023-03-26T16:32:17.210Z,19.93
2023-03-26T16:34:54.229Z,19.94
2023-03-26T16:37:41.164Z,19.94
2023-03-26T16:40:24.782Z,19.94
2023-03-26T16:43:10.973Z,19.92
2023-03-26T16:45:52.869Z,19.90
2023-03-26T16:48:34.964Z,19.87
2023-03-26T16:51:34.376Z,19.85
2023-03-26T16:54:19.950Z,19.82
2023-03-26T16:57:29.494Z,19.82
2023-03-26T17:00:08.373Z,19.84
2023-03-26T17:03:23.252Z,19.83
2023-03-26T17:05:50.365Z,19.82
2023-03-26T17:08:51.881Z,19.82
2023-03-26T17:11:24.771Z,19.81
2023-03-26T17:14:15.190Z,19.80
2023-03-26T17:17:05.842Z,19.78
2023-03-26T17:20:28.028Z,19.76
2023-03-26T17:23:05.755Z,19.75
2023-03-26T17:25:44.842Z,19.74
2023-03-26T17:28:43.744Z,19.74
2023-03-26T17:31:36.726Z,19.77
2023-03-26T17:34:38.997Z,19.78
2023-03-26T17:37:11.895Z,19.78
2023-03-26T17:39:47.151Z,19.78
2023-03-26T17:42:28.065Z,19.77
2023-03-26T17:45:30.720Z,19.76
2023-03-26T17:48:02.874Z,19.77
2023-03-26T17:50:35.172Z,19.76
2023-03-26T17:53:06.628Z,19.75
2023-03-26T17:55:37.721Z,19.73
2023-03-26T17:58:25.720Z,19.71
2023-03-26T18:01:06.431Z,19.69
2023-03-26T18:03:44.371Z,19.66
2023-03-26T18:06:51.980Z,19.66
2023-03-26T18:09:29.881Z,19.63
2023-03-26T18:12:15.125Z,19.62
2023-03-26T18:15:27.462Z,19.61
2023-03-26T18:18:13.363Z,19.60
2023-03-26T18:20:47.193Z,19.59
2023-03-26T18:23:35.814Z,19.58
2023-03-26T18:26:16.400Z,19.56
2023-03-26T18:28:49.467Z,19.55
2023-03-26T18:31:20.704Z,19.54
2023-03-26T18:33:51.248Z,19.52
2023-03-26T18:36:18.903Z,19.52
2023-03-26T18:38:47.074Z,19.55
2023-03-26T18:41:31.443Z,19.55
2023-03-26T18:44:04.515Z,19.54
2023-03-26T18:46:34.179Z,19.55
2023-03-26T18:49:03.160Z,19.56
2023-03-26T18:51:43.261Z,19.57
2023-03-26T18:54:21.547Z,19.58
2023-03-26T18:56:53.250Z,19.59
2023-03-26T18:59:35.436Z,19.62
2023-03-26T19:02:14.629Z,19.63
2023-03-26T19:04:46.077Z,19.64
2023-03-26T19:07:26.622Z,19.65
2023-03-26T19:09:56.704Z,19.66
2023-03-26T19:12:34.209Z,19.66
2023-03-26T19:15:17.587Z,19.67
2023-03-26T19:17:50.085Z,19.65
2023-03-26T19:20:24.469Z,19.64
2023-03-26T19:22:52.286Z,19.64
2023-03-26T19:25:31.823Z,19.64
2023-03-26T19:27:59.500Z,19.63
2023-03-26T19:30:33.018Z,19.63
2023-03-26T19:33:12.771Z,19.64
2023-03-26T19:35:43.709Z,19.64
2023-03-26T19:38:21.694Z,19.64
2023-03-26T19:40:51.154Z,19.64
2023-03-26T19:43:19.389Z,19.65
2023-03-26T19:45:59.701Z,19.65
2023-03-26T19:48:46.844Z,19.64
2023-03-26T19:51:31.659Z,19.64
2023-03-26T19:54:01.305Z,19.64
2023-03-26T19:56:28.987Z,19.64
2023-03-26T19:58:57.142Z,19.64
2023-03-26T20:01:26.996Z,19.63
2023-03-26T20:04:04.370Z,19.63
2023-03-26T20:06:43.076Z,19.63
2023-03-26T20:09:14.402Z,19.63
2023-03-26T20:11:41.676Z,19.63
2023-03-26T20:14:17.522Z,19.63
2023-03-26T20:16:45.563Z,19.65
2023-03-26T20:19:14.552Z,19.67
2023-03-26T20:21:41.892Z,19.69
2023-03-26T20:24:15.195Z,19.72
2023-03-26T20:26:42.688Z,19.74
2023-03-26T20:29:10.496Z,19.75
2023-03-26T20:31:38.453Z,19.76
2023-03-26T20:34:13.960Z,19.76
2023-03-26T20:36:41.170Z,19.76
2023-03-26T20:39:08.478Z,19.76
2023-03-26T20:41:39.607Z,19.75
2023-03-26T20:44:13.939Z,19.75
2023-03-26T20:46:45.113Z,19.73
2023-03-26T20:49:15.270Z,19.73
2023-03-26T20:51:43.978Z,19.72
2023-03-26T20:54:21.614Z,19.70
2023-03-26T20:56:49.399Z,19.69
2023-03-26T20:59:21.849Z,19.68
2023-03-26T21:01:50.782Z,19.67
2023-03-26T21:04:17.913Z,19.66
2023-03-26T21:06:45.863Z,19.65
2023-03-26T21:09:16.090Z,19.64
2023-03-26T21:12:17.284Z,19.65
2023-03-26T21:14:47.127Z,19.66
2023-03-26T21:17:22.449Z,19.67
2023-03-26T21:19:50.357Z,19.68
2023-03-26T21:22:29.095Z,19.69
2023-03-26T21:24:59.319Z,19.69
2023-03-26T21:27:51.506Z,19.70
2023-03-26T21:30:19.398Z,19.70
2023-03-26T21:32:47.168Z,19.72
2023-03-26T21:35:16.675Z,19.73
2023-03-26T21:37:49.218Z,19.75
2023-03-26T21:40:18.502Z,19.75
2023-03-26T21:42:51.760Z,19.75
2023-03-26T21:45:20.033Z,19.75
2023-03-26T21:47:48.678Z,19.75
2023-03-26T21:50:18.901Z,19.75
2023-03-26T21:52:51.098Z,19.77
2023-03-26T21:55:21.588Z,19.78
2023-03-26T21:58:28.468Z,19.79
2023-03-26T22:01:08.984Z,19.82
2023-03-26T22:04:28.141Z,19.83
2023-03-26T22:07:04.471Z,19.86
2023-03-26T22:09:36.423Z,19.88
2023-03-26T22:12:04.830Z,19.88
2023-03-26T22:14:31.792Z,19.90
2023-03-26T22:16:58.693Z,19.92
2023-03-26T22:19:26.473Z,19.92
2023-03-26T22:21:54.612Z,19.94
2023-03-26T22:24:21.532Z,19.95
2023-03-26T22:26:48.709Z,19.96
2023-03-26T22:29:16.982Z,19.96
2023-03-26T22:31:44.033Z,19.96
2023-03-26T22:34:12.061Z,19.98
2023-03-26T22:36:40.472Z,19.98
2023-03-26T22:39:07.570Z,19.99
2023-03-26T22:41:34.453Z,20.00
2023-03-26T22:44:16.856Z,20.01
2023-03-26T22:46:49.509Z,20.01
2023-03-26T22:49:17.442Z,20.02
2023-03-26T22:51:44.501Z,20.02
2023-03-26T22:54:11.559Z,20.03
2023-03-26T22:56:38.651Z,20.04
2023-03-26T22:59:05.690Z,20.03
2023-03-26T23:01:32.787Z,20.03
2023-03-26T23:03:59.828Z,20.04
2023-03-26T23:06:26.857Z,20.05
2023-03-26T23:08:54.738Z,20.05
2023-03-26T23:11:24.574Z,20.06
2023-03-26T23:13:52.158Z,20.06
2023-03-26T23:16:21.704Z,20.06
2023-03-26T23:18:48.866Z,20.07
2023-03-26T23:21:21.938Z,20.07
2023-03-26T23:23:50.008Z,20.07
2023-03-26T23:26:17.297Z,20.08
2023-03-26T23:28:44.388Z,20.08
2023-03-26T23:31:12.643Z,20.08
2023-03-26T23:33:46.315Z,20.09
2023-03-26T23:36:18.320Z,20.09
2023-03-26T23:38:47.059Z,20.09
2023-03-26T23:41:19.681Z,20.09
2023-03-26T23:43:53.793Z,20.09
2023-03-26T23:46:24.602Z,20.09
2023-03-26T23:48:52.383Z,20.10
2023-03-26T23:51:20.493Z,20.10
2023-03-26T23:53:49.422Z,20.10
2023-03-26T23:56:16.887Z,20.10
2023-03-26T23:58:44.164Z,20.10
